sensor_id;sensor_type;location;lat;lon;timestamp;P1;durP1;ratioP1;P2;durP2;ratioP2
3985;SDS011;2007;48.750;9.278;2023-01-08T00:00:48;3.10;;;2.80;;
3985;SDS011;2007;48.750;9.278;2023-01-08T00:03:16;2.67;;;2.27;;
3985;SDS011;2007;48.750;9.278;2023-01-08T00:05:45;3.17;;;2.80;;
3985;SDS011;2007;48.750;9.278;2023-01-08T00:08:12;3.90;;;2.73;;
3985;SDS011;2007;48.750;9.278;2023-01-08T00:10:42;2.90;;;2.20;;
3985;SDS011;2007;48.750;9.278;2023-01-08T00:13:10;3.23;;;2.63;;
3985;SDS011;2007;48.750;9.278;2023-01-08T00:15:38;3.60;;;2.53;;
3985;SDS011;2007;48.750;9.278;2023-01-08T00:18:05;2.23;;;2.03;;
3985;SDS011;2007;48.750;9.278;2023-01-08T00:20:33;2.83;;;2.50;;
3985;SDS011;2007;48.750;9.278;2023-01-08T00:23:01;3.70;;;2.97;;
3985;SDS011;2007;48.750;9.278;2023-01-08T00:25:29;3.00;;;2.30;;
3985;SDS011;2007;48.750;9.278;2023-01-08T00:27:59;3.20;;;2.53;;
3985;SDS011;2007;48.750;9.278;2023-01-08T00:30:27;3.10;;;2.80;;
3985;SDS011;2007;48.750;9.278;2023-01-08T00:32:55;2.93;;;2.53;;
3985;SDS011;2007;48.750;9.278;2023-01-08T00:35:23;4.20;;;2.73;;
3985;SDS011;2007;48.750;9.278;2023-01-08T00:37:51;3.00;;;2.70;;
3985;SDS011;2007;48.750;9.278;2023-01-08T00:40:19;3.87;;;3.57;;
3985;SDS011;2007;48.750;9.278;2023-01-08T00:42:47;3.93;;;2.77;;
3985;SDS011;2007;48.750;9.278;2023-01-08T00:45:16;2.40;;;2.07;;
3985;SDS011;2007;48.750;9.278;2023-01-08T00:47:44;4.13;;;3.07;;
3985;SDS011;2007;48.750;9.278;2023-01-08T00:50:12;3.00;;;2.70;;
3985;SDS011;2007;48.750;9.278;2023-01-08T00:52:40;3.47;;;2.87;;
3985;SDS011;2007;48.750;9.278;2023-01-08T00:55:08;3.17;;;2.73;;
3985;SDS011;2007;48.750;9.278;2023-01-08T00:57:36;2.93;;;2.50;;
3985;SDS011;2007;48.750;9.278;2023-01-08T01:00:07;4.73;;;2.77;;
3985;SDS011;2007;48.750;9.278;2023-01-08T01:02:39;2.80;;;2.50;;
3985;SDS011;2007;48.750;9.278;2023-01-08T01:05:08;2.80;;;2.23;;
3985;SDS011;2007;48.750;9.278;2023-01-08T01:07:40;3.77;;;2.60;;
3985;SDS011;2007;48.750;9.278;2023-01-08T01:10:09;3.77;;;2.77;;
3985;SDS011;2007;48.750;9.278;2023-01-08T01:12:37;3.50;;;2.67;;
3985;SDS011;2007;48.750;9.278;2023-01-08T01:15:06;3.97;;;3.20;;
3985;SDS011;2007;48.750;9.278;2023-01-08T01:17:39;3.60;;;3.00;;
3985;SDS011;2007;48.750;9.278;2023-01-08T01:20:09;3.77;;;3.00;;
3985;SDS011;2007;48.750;9.278;2023-01-08T01:22:39;3.20;;;2.70;;
3985;SDS011;2007;48.750;9.278;2023-01-08T01:25:08;3.47;;;2.90;;
3985;SDS011;2007;48.750;9.278;2023-01-08T01:27:36;3.57;;;3.00;;
3985;SDS011;2007;48.750;9.278;2023-01-08T01:30:05;3.07;;;2.77;;
3985;SDS011;2007;48.750;9.278;2023-01-08T01:32:34;3.10;;;2.63;;
3985;SDS011;2007;48.750;9.278;2023-01-08T01:35:04;3.70;;;2.87;;
3985;SDS011;2007;48.750;9.278;2023-01-08T01:37:32;2.83;;;2.23;;
3985;SDS011;2007;48.750;9.278;2023-01-08T01:40:00;3.80;;;3.10;;
3985;SDS011;2007;48.750;9.278;2023-01-08T01:42:28;3.80;;;2.80;;
3985;SDS011;2007;48.750;9.278;2023-01-08T01:45:14;4.20;;;3.07;;
3985;SDS011;2007;48.750;9.278;2023-01-08T01:47:46;2.97;;;2.67;;
3985;SDS011;2007;48.750;9.278;2023-01-08T01:50:19;3.60;;;3.30;;
3985;SDS011;2007;48.750;9.278;2023-01-08T01:52:53;3.80;;;2.77;;
3985;SDS011;2007;48.750;9.278;2023-01-08T01:55:27;3.57;;;2.97;;
3985;SDS011;2007;48.750;9.278;2023-01-08T01:57:58;3.87;;;3.47;;
3985;SDS011;2007;48.750;9.278;2023-01-08T02:00:31;4.13;;;2.90;;
3985;SDS011;2007;48.750;9.278;2023-01-08T02:03:00;3.27;;;2.97;;
3985;SDS011;2007;48.750;9.278;2023-01-08T02:05:31;3.53;;;2.70;;
3985;SDS011;2007;48.750;9.278;2023-01-08T02:08:05;3.40;;;3.10;;
3985;SDS011;2007;48.750;9.278;2023-01-08T02:10:38;3.17;;;2.53;;
3985;SDS011;2007;48.750;9.278;2023-01-08T02:13:12;3.40;;;2.67;;
3985;SDS011;2007;48.750;9.278;2023-01-08T02:15:48;7.10;;;2.60;;
3985;SDS011;2007;48.750;9.278;2023-01-08T02:18:24;4.00;;;3.30;;
3985;SDS011;2007;48.750;9.278;2023-01-08T02:20:58;2.67;;;2.37;;
3985;SDS011;2007;48.750;9.278;2023-01-08T02:23:33;3.13;;;2.23;;
3985;SDS011;2007;48.750;9.278;2023-01-08T02:26:10;2.83;;;2.53;;
3985;SDS011;2007;48.750;9.278;2023-01-08T02:28:43;3.67;;;2.80;;
3985;SDS011;2007;48.750;9.278;2023-01-08T02:31:14;2.73;;;2.40;;
3985;SDS011;2007;48.750;9.278;2023-01-08T02:33:43;3.40;;;2.63;;
3985;SDS011;2007;48.750;9.278;2023-01-08T02:36:23;3.23;;;2.53;;
3985;SDS011;2007;48.750;9.278;2023-01-08T02:38:58;2.93;;;2.73;;
3985;SDS011;2007;48.750;9.278;2023-01-08T02:41:58;3.83;;;2.30;;
3985;SDS011;2007;48.750;9.278;2023-01-08T02:44:39;3.40;;;3.10;;
3985;SDS011;2007;48.750;9.278;2023-01-08T02:47:21;3.23;;;2.57;;
3985;SDS011;2007;48.750;9.278;2023-01-08T02:49:53;2.80;;;2.50;;
3985;SDS011;2007;48.750;9.278;2023-01-08T02:52:29;3.67;;;3.27;;
3985;SDS011;2007;48.750;9.278;2023-01-08T02:55:03;2.60;;;2.27;;
3985;SDS011;2007;48.750;9.278;2023-01-08T02:57:33;2.87;;;2.50;;
3985;SDS011;2007;48.750;9.278;2023-01-08T03:00:01;4.23;;;2.70;;
3985;SDS011;2007;48.750;9.278;2023-01-08T03:02:30;3.60;;;2.60;;
3985;SDS011;2007;48.750;9.278;2023-01-08T03:05:02;3.37;;;2.87;;
3985;SDS011;2007;48.750;9.278;2023-01-08T03:07:35;3.13;;;2.80;;
3985;SDS011;2007;48.750;9.278;2023-01-08T03:10:03;3.30;;;3.00;;
3985;SDS011;2007;48.750;9.278;2023-01-08T03:12:36;3.07;;;2.60;;
3985;SDS011;2007;48.750;9.278;2023-01-08T03:15:12;2.80;;;2.40;;
3985;SDS011;2007;48.750;9.278;2023-01-08T03:17:45;3.60;;;2.90;;
3985;SDS011;2007;48.750;9.278;2023-01-08T03:20:17;2.87;;;2.50;;
3985;SDS011;2007;48.750;9.278;2023-01-08T03:22:48;3.40;;;2.27;;
3985;SDS011;2007;48.750;9.278;2023-01-08T03:25:19;2.87;;;2.40;;
3985;SDS011;2007;48.750;9.278;2023-01-08T03:27:51;3.10;;;2.73;;
3985;SDS011;2007;48.750;9.278;2023-01-08T03:30:23;3.80;;;3.40;;
3985;SDS011;2007;48.750;9.278;2023-01-08T03:32:51;4.17;;;2.70;;
3985;SDS011;2007;48.750;9.278;2023-01-08T03:35:23;3.37;;;2.73;;
3985;SDS011;2007;48.750;9.278;2023-01-08T03:37:53;4.63;;;3.80;;
3985;SDS011;2007;48.750;9.278;2023-01-08T03:40:25;2.73;;;2.43;;
3985;SDS011;2007;48.750;9.278;2023-01-08T03:42:58;3.47;;;3.03;;
3985;SDS011;2007;48.750;9.278;2023-01-08T03:45:26;3.33;;;2.50;;
3985;SDS011;2007;48.750;9.278;2023-01-08T03:47:57;4.40;;;3.30;;
3985;SDS011;2007;48.750;9.278;2023-01-08T03:50:29;4.63;;;3.20;;
3985;SDS011;2007;48.750;9.278;2023-01-08T03:52:58;3.93;;;2.80;;
3985;SDS011;2007;48.750;9.278;2023-01-08T03:55:26;2.73;;;2.53;;
3985;SDS011;2007;48.750;9.278;2023-01-08T03:57:54;2.57;;;2.37;;
3985;SDS011;2007;48.750;9.278;2023-01-08T04:00:23;4.00;;;3.27;;
3985;SDS011;2007;48.750;9.278;2023-01-08T04:02:51;3.30;;;3.00;;
3985;SDS011;2007;48.750;9.278;2023-01-08T04:05:19;3.20;;;2.90;;
3985;SDS011;2007;48.750;9.278;2023-01-08T04:07:47;3.27;;;2.70;;
3985;SDS011;2007;48.750;9.278;2023-01-08T04:10:15;2.80;;;2.50;;
3985;SDS011;2007;48.750;9.278;2023-01-08T04:12:43;3.20;;;2.50;;
3985;SDS011;2007;48.750;9.278;2023-01-08T04:15:11;3.27;;;2.77;;
3985;SDS011;2007;48.750;9.278;2023-01-08T04:17:40;4.53;;;3.17;;
3985;SDS011;2007;48.750;9.278;2023-01-08T04:20:08;2.67;;;2.47;;
3985;SDS011;2007;48.750;9.278;2023-01-08T04:22:37;3.30;;;2.80;;
3985;SDS011;2007;48.750;9.278;2023-01-08T04:25:05;3.17;;;2.47;;
3985;SDS011;2007;48.750;9.278;2023-01-08T04:27:33;3.13;;;2.57;;
3985;SDS011;2007;48.750;9.278;2023-01-08T04:30:01;3.83;;;3.43;;
3985;SDS011;2007;48.750;9.278;2023-01-08T04:32:30;3.80;;;3.30;;
3985;SDS011;2007;48.750;9.278;2023-01-08T04:34:59;3.53;;;3.23;;
3985;SDS011;2007;48.750;9.278;2023-01-08T04:37:27;5.30;;;3.10;;
3985;SDS011;2007;48.750;9.278;2023-01-08T04:39:55;3.43;;;3.10;;
3985;SDS011;2007;48.750;9.278;2023-01-08T04:42:23;2.90;;;2.60;;
3985;SDS011;2007;48.750;9.278;2023-01-08T04:44:50;3.27;;;2.97;;
3985;SDS011;2007;48.750;9.278;2023-01-08T04:47:18;3.90;;;3.50;;
3985;SDS011;2007;48.750;9.278;2023-01-08T04:49:46;4.07;;;2.60;;
3985;SDS011;2007;48.750;9.278;2023-01-08T04:52:15;4.03;;;3.10;;
3985;SDS011;2007;48.750;9.278;2023-01-08T04:54:43;3.33;;;3.00;;
3985;SDS011;2007;48.750;9.278;2023-01-08T04:57:11;3.00;;;2.57;;
3985;SDS011;2007;48.750;9.278;2023-01-08T04:59:39;3.90;;;2.77;;
3985;SDS011;2007;48.750;9.278;2023-01-08T05:02:07;3.00;;;2.80;;
3985;SDS011;2007;48.750;9.278;2023-01-08T05:04:35;3.03;;;2.50;;
3985;SDS011;2007;48.750;9.278;2023-01-08T05:07:03;3.27;;;2.87;;
3985;SDS011;2007;48.750;9.278;2023-01-08T05:09:34;3.43;;;2.37;;
3985;SDS011;2007;48.750;9.278;2023-01-08T05:12:02;3.20;;;2.77;;
3985;SDS011;2007;48.750;9.278;2023-01-08T05:14:30;3.57;;;2.83;;
3985;SDS011;2007;48.750;9.278;2023-01-08T05:16:58;4.40;;;3.00;;
3985;SDS011;2007;48.750;9.278;2023-01-08T05:19:26;2.60;;;2.20;;
3985;SDS011;2007;48.750;9.278;2023-01-08T05:21:54;3.37;;;2.90;;
3985;SDS011;2007;48.750;9.278;2023-01-08T05:24:22;3.17;;;2.80;;
3985;SDS011;2007;48.750;9.278;2023-01-08T05:26:52;3.60;;;3.10;;
3985;SDS011;2007;48.750;9.278;2023-01-08T05:29:20;3.43;;;3.13;;
3985;SDS011;2007;48.750;9.278;2023-01-08T05:31:48;3.13;;;2.83;;
3985;SDS011;2007;48.750;9.278;2023-01-08T05:34:16;4.03;;;2.70;;
3985;SDS011;2007;48.750;9.278;2023-01-08T05:36:43;3.70;;;3.30;;
3985;SDS011;2007;48.750;9.278;2023-01-08T05:39:11;3.83;;;3.00;;
3985;SDS011;2007;48.750;9.278;2023-01-08T05:41:39;2.90;;;2.37;;
3985;SDS011;2007;48.750;9.278;2023-01-08T05:44:09;3.10;;;2.53;;
3985;SDS011;2007;48.750;9.278;2023-01-08T05:46:37;3.03;;;2.40;;
3985;SDS011;2007;48.750;9.278;2023-01-08T05:49:05;2.63;;;2.13;;
3985;SDS011;2007;48.750;9.278;2023-01-08T05:51:33;3.30;;;2.67;;
3985;SDS011;2007;48.750;9.278;2023-01-08T05:54:01;4.20;;;2.57;;
3985;SDS011;2007;48.750;9.278;2023-01-08T05:56:29;4.23;;;2.70;;
3985;SDS011;2007;48.750;9.278;2023-01-08T05:58:57;3.10;;;2.63;;
3985;SDS011;2007;48.750;9.278;2023-01-08T06:01:26;3.50;;;3.20;;
3985;SDS011;2007;48.750;9.278;2023-01-08T06:03:54;3.57;;;2.90;;
3985;SDS011;2007;48.750;9.278;2023-01-08T06:06:24;3.90;;;3.00;;
3985;SDS011;2007;48.750;9.278;2023-01-08T06:08:51;2.80;;;2.60;;
3985;SDS011;2007;48.750;9.278;2023-01-08T06:11:19;2.33;;;2.10;;
3985;SDS011;2007;48.750;9.278;2023-01-08T06:13:47;3.27;;;2.83;;
3985;SDS011;2007;48.750;9.278;2023-01-08T06:16:15;2.93;;;2.40;;
3985;SDS011;2007;48.750;9.278;2023-01-08T06:18:45;3.03;;;2.50;;
3985;SDS011;2007;48.750;9.278;2023-01-08T06:21:13;3.00;;;2.70;;
3985;SDS011;2007;48.750;9.278;2023-01-08T06:23:41;3.00;;;2.67;;
3985;SDS011;2007;48.750;9.278;2023-01-08T06:26:09;2.87;;;2.67;;
3985;SDS011;2007;48.750;9.278;2023-01-08T06:28:37;3.07;;;2.77;;
3985;SDS011;2007;48.750;9.278;2023-01-08T06:31:04;3.10;;;2.70;;
3985;SDS011;2007;48.750;9.278;2023-01-08T06:33:32;3.47;;;2.90;;
3985;SDS011;2007;48.750;9.278;2023-01-08T06:36:02;2.47;;;2.27;;
3985;SDS011;2007;48.750;9.278;2023-01-08T06:38:31;2.57;;;2.37;;
3985;SDS011;2007;48.750;9.278;2023-01-08T06:41:02;2.90;;;2.50;;
3985;SDS011;2007;48.750;9.278;2023-01-08T06:43:30;3.13;;;2.83;;
3985;SDS011;2007;48.750;9.278;2023-01-08T06:46:01;2.83;;;2.50;;
3985;SDS011;2007;48.750;9.278;2023-01-08T06:48:30;3.30;;;2.63;;
3985;SDS011;2007;48.750;9.278;2023-01-08T06:50:58;2.80;;;2.60;;
3985;SDS011;2007;48.750;9.278;2023-01-08T06:53:28;3.23;;;2.30;;
3985;SDS011;2007;48.750;9.278;2023-01-08T06:55:56;3.00;;;2.70;;
3985;SDS011;2007;48.750;9.278;2023-01-08T06:58:24;3.37;;;2.80;;
3985;SDS011;2007;48.750;9.278;2023-01-08T07:00:52;2.90;;;2.57;;
3985;SDS011;2007;48.750;9.278;2023-01-08T07:03:20;3.50;;;2.50;;
3985;SDS011;2007;48.750;9.278;2023-01-08T07:05:48;2.37;;;2.07;;
3985;SDS011;2007;48.750;9.278;2023-01-08T07:08:17;2.40;;;2.20;;
3985;SDS011;2007;48.750;9.278;2023-01-08T07:10:46;2.03;;;1.70;;
3985;SDS011;2007;48.750;9.278;2023-01-08T07:13:14;3.60;;;3.07;;
3985;SDS011;2007;48.750;9.278;2023-01-08T07:15:42;2.67;;;2.20;;
3985;SDS011;2007;48.750;9.278;2023-01-08T07:18:10;3.07;;;2.50;;
3985;SDS011;2007;48.750;9.278;2023-01-08T07:20:38;3.50;;;2.57;;
3985;SDS011;2007;48.750;9.278;2023-01-08T07:23:08;2.90;;;2.30;;
3985;SDS011;2007;48.750;9.278;2023-01-08T07:25:37;2.97;;;2.40;;
3985;SDS011;2007;48.750;9.278;2023-01-08T07:28:08;2.60;;;2.40;;
3985;SDS011;2007;48.750;9.278;2023-01-08T07:30:38;3.10;;;2.07;;
3985;SDS011;2007;48.750;9.278;2023-01-08T07:33:05;2.67;;;2.47;;
3985;SDS011;2007;48.750;9.278;2023-01-08T07:35:33;2.90;;;2.40;;
3985;SDS011;2007;48.750;9.278;2023-01-08T07:38:03;2.57;;;2.37;;
3985;SDS011;2007;48.750;9.278;2023-01-08T07:40:31;2.10;;;1.90;;
3985;SDS011;2007;48.750;9.278;2023-01-08T07:43:00;2.97;;;2.13;;
3985;SDS011;2007;48.750;9.278;2023-01-08T07:45:30;3.33;;;2.13;;
3985;SDS011;2007;48.750;9.278;2023-01-08T07:47:58;4.73;;;2.90;;
3985;SDS011;2007;48.750;9.278;2023-01-08T07:50:26;2.40;;;2.03;;
3985;SDS011;2007;48.750;9.278;2023-01-08T07:52:57;2.43;;;2.23;;
3985;SDS011;2007;48.750;9.278;2023-01-08T07:55:26;3.13;;;2.13;;
3985;SDS011;2007;48.750;9.278;2023-01-08T07:57:55;2.97;;;2.27;;
3985;SDS011;2007;48.750;9.278;2023-01-08T08:00:23;2.63;;;2.20;;
3985;SDS011;2007;48.750;9.278;2023-01-08T08:02:53;2.47;;;2.03;;
3985;SDS011;2007;48.750;9.278;2023-01-08T08:05:21;2.47;;;2.10;;
3985;SDS011;2007;48.750;9.278;2023-01-08T08:07:49;2.40;;;2.03;;
3985;SDS011;2007;48.750;9.278;2023-01-08T08:10:17;3.17;;;2.10;;
3985;SDS011;2007;48.750;9.278;2023-01-08T08:12:45;2.10;;;1.90;;
3985;SDS011;2007;48.750;9.278;2023-01-08T08:15:13;2.30;;;1.87;;
3985;SDS011;2007;48.750;9.278;2023-01-08T08:17:43;2.83;;;2.20;;
3985;SDS011;2007;48.750;9.278;2023-01-08T08:20:13;2.67;;;2.33;;
3985;SDS011;2007;48.750;9.278;2023-01-08T08:22:41;2.23;;;1.90;;
3985;SDS011;2007;48.750;9.278;2023-01-08T08:25:09;2.43;;;2.00;;
3985;SDS011;2007;48.750;9.278;2023-01-08T08:27:40;2.27;;;1.93;;
3985;SDS011;2007;48.750;9.278;2023-01-08T08:30:08;2.40;;;2.20;;
3985;SDS011;2007;48.750;9.278;2023-01-08T08:32:38;2.83;;;2.00;;
3985;SDS011;2007;48.750;9.278;2023-01-08T08:35:06;2.87;;;2.47;;
3985;SDS011;2007;48.750;9.278;2023-01-08T08:37:35;2.23;;;1.73;;
3985;SDS011;2007;48.750;9.278;2023-01-08T08:40:04;2.57;;;2.00;;
3985;SDS011;2007;48.750;9.278;2023-01-08T08:42:32;2.10;;;1.63;;
3985;SDS011;2007;48.750;9.278;2023-01-08T08:45:00;3.43;;;1.70;;
3985;SDS011;2007;48.750;9.278;2023-01-08T08:47:28;2.20;;;1.70;;
3985;SDS011;2007;48.750;9.278;2023-01-08T08:49:56;2.83;;;2.00;;
3985;SDS011;2007;48.750;9.278;2023-01-08T08:52:24;3.57;;;2.27;;
3985;SDS011;2007;48.750;9.278;2023-01-08T08:54:53;2.10;;;1.90;;
3985;SDS011;2007;48.750;9.278;2023-01-08T08:57:21;2.20;;;1.77;;
3985;SDS011;2007;48.750;9.278;2023-01-08T08:59:50;2.63;;;2.07;;
3985;SDS011;2007;48.750;9.278;2023-01-08T09:02:18;2.20;;;1.63;;
3985;SDS011;2007;48.750;9.278;2023-01-08T09:04:46;2.90;;;2.60;;
3985;SDS011;2007;48.750;9.278;2023-01-08T09:07:14;2.57;;;1.70;;
3985;SDS011;2007;48.750;9.278;2023-01-08T09:09:42;2.43;;;1.87;;
3985;SDS011;2007;48.750;9.278;2023-01-08T09:12:11;2.23;;;1.80;;
3985;SDS011;2007;48.750;9.278;2023-01-08T09:14:39;2.53;;;1.60;;
3985;SDS011;2007;48.750;9.278;2023-01-08T09:17:07;3.63;;;2.20;;
3985;SDS011;2007;48.750;9.278;2023-01-08T09:19:34;2.50;;;1.70;;
3985;SDS011;2007;48.750;9.278;2023-01-08T09:22:03;2.20;;;2.00;;
3985;SDS011;2007;48.750;9.278;2023-01-08T09:24:31;2.70;;;2.37;;
3985;SDS011;2007;48.750;9.278;2023-01-08T09:26:59;2.20;;;1.70;;
3985;SDS011;2007;48.750;9.278;2023-01-08T09:29:28;2.13;;;1.50;;
3985;SDS011;2007;48.750;9.278;2023-01-08T09:31:56;2.23;;;1.77;;
3985;SDS011;2007;48.750;9.278;2023-01-08T09:34:25;2.40;;;1.70;;
3985;SDS011;2007;48.750;9.278;2023-01-08T09:36:54;2.83;;;2.03;;
3985;SDS011;2007;48.750;9.278;2023-01-08T09:39:23;1.93;;;1.73;;
3985;SDS011;2007;48.750;9.278;2023-01-08T09:41:51;2.20;;;1.80;;
3985;SDS011;2007;48.750;9.278;2023-01-08T09:44:21;2.00;;;1.77;;
3985;SDS011;2007;48.750;9.278;2023-01-08T09:46:53;2.10;;;1.63;;
3985;SDS011;2007;48.750;9.278;2023-01-08T09:49:23;2.40;;;1.73;;
3985;SDS011;2007;48.750;9.278;2023-01-08T09:51:54;2.50;;;1.47;;
3985;SDS011;2007;48.750;9.278;2023-01-08T09:54:22;2.50;;;1.80;;
3985;SDS011;2007;48.750;9.278;2023-01-08T09:56:52;2.10;;;1.60;;
3985;SDS011;2007;48.750;9.278;2023-01-08T09:59:20;2.10;;;1.77;;
3985;SDS011;2007;48.750;9.278;2023-01-08T10:01:48;2.10;;;1.43;;
3985;SDS011;2007;48.750;9.278;2023-01-08T10:04:21;2.57;;;2.07;;
3985;SDS011;2007;48.750;9.278;2023-01-08T10:06:51;2.57;;;1.90;;
3985;SDS011;2007;48.750;9.278;2023-01-08T10:09:23;2.47;;;1.80;;
3985;SDS011;2007;48.750;9.278;2023-01-08T10:11:53;2.13;;;1.90;;
3985;SDS011;2007;48.750;9.278;2023-01-08T10:14:24;2.00;;;1.50;;
3985;SDS011;2007;48.750;9.278;2023-01-08T10:16:56;2.03;;;1.70;;
3985;SDS011;2007;48.750;9.278;2023-01-08T10:19:28;2.10;;;1.70;;
3985;SDS011;2007;48.750;9.278;2023-01-08T10:21:56;2.00;;;1.70;;
3985;SDS011;2007;48.750;9.278;2023-01-08T10:24:31;2.97;;;1.87;;
3985;SDS011;2007;48.750;9.278;2023-01-08T10:27:04;2.50;;;1.50;;
3985;SDS011;2007;48.750;9.278;2023-01-08T10:29:33;1.90;;;1.60;;
3985;SDS011;2007;48.750;9.278;2023-01-08T10:32:06;2.10;;;1.83;;
3985;SDS011;2007;48.750;9.278;2023-01-08T10:34:42;3.70;;;1.57;;
3985;SDS011;2007;48.750;9.278;2023-01-08T10:37:13;2.17;;;1.97;;
3985;SDS011;2007;48.750;9.278;2023-01-08T10:39:44;2.70;;;1.77;;
3985;SDS011;2007;48.750;9.278;2023-01-08T10:42:13;1.80;;;1.40;;
3985;SDS011;2007;48.750;9.278;2023-01-08T10:44:50;1.90;;;1.50;;
3985;SDS011;2007;48.750;9.278;2023-01-08T10:47:25;1.63;;;1.40;;
3985;SDS011;2007;48.750;9.278;2023-01-08T10:49:58;2.03;;;1.43;;
3985;SDS011;2007;48.750;9.278;2023-01-08T10:52:28;1.80;;;1.37;;
3985;SDS011;2007;48.750;9.278;2023-01-08T10:55:09;1.73;;;1.27;;
3985;SDS011;2007;48.750;9.278;2023-01-08T10:57:39;1.83;;;1.30;;
3985;SDS011;2007;48.750;9.278;2023-01-08T11:00:21;2.20;;;1.40;;
3985;SDS011;2007;48.750;9.278;2023-01-08T11:02:52;2.00;;;1.60;;
3985;SDS011;2007;48.750;9.278;2023-01-08T11:05:28;1.70;;;1.20;;
3985;SDS011;2007;48.750;9.278;2023-01-08T11:07:58;2.13;;;1.77;;
3985;SDS011;2007;48.750;9.278;2023-01-08T11:10:28;2.17;;;1.23;;
3985;SDS011;2007;48.750;9.278;2023-01-08T11:12:57;1.77;;;1.13;;
3985;SDS011;2007;48.750;9.278;2023-01-08T11:15:30;2.00;;;1.33;;
3985;SDS011;2007;48.750;9.278;2023-01-08T11:18:04;2.80;;;1.60;;
3985;SDS011;2007;48.750;9.278;2023-01-08T11:20:35;1.97;;;1.43;;
3985;SDS011;2007;48.750;9.278;2023-01-08T11:23:04;1.90;;;1.30;;
3985;SDS011;2007;48.750;9.278;2023-01-08T11:25:32;1.80;;;1.13;;
3985;SDS011;2007;48.750;9.278;2023-01-08T11:28:01;1.87;;;1.30;;
3985;SDS011;2007;48.750;9.278;2023-01-08T11:30:32;1.90;;;1.60;;
3985;SDS011;2007;48.750;9.278;2023-01-08T11:33:03;1.50;;;1.00;;
3985;SDS011;2007;48.750;9.278;2023-01-08T11:35:37;1.80;;;1.30;;
3985;SDS011;2007;48.750;9.278;2023-01-08T11:38:10;2.80;;;1.47;;
3985;SDS011;2007;48.750;9.278;2023-01-08T11:40:41;1.90;;;1.30;;
3985;SDS011;2007;48.750;9.278;2023-01-08T11:43:17;1.80;;;1.30;;
3985;SDS011;2007;48.750;9.278;2023-01-08T11:46:01;2.43;;;1.30;;
3985;SDS011;2007;48.750;9.278;2023-01-08T11:48:44;2.10;;;1.60;;
3985;SDS011;2007;48.750;9.278;2023-01-08T11:51:38;1.90;;;1.50;;
3985;SDS011;2007;48.750;9.278;2023-01-08T11:54:21;2.10;;;1.30;;
3985;SDS011;2007;48.750;9.278;2023-01-08T11:57:03;1.83;;;1.37;;
3985;SDS011;2007;48.750;9.278;2023-01-08T11:59:45;2.17;;;1.60;;
3985;SDS011;2007;48.750;9.278;2023-01-08T12:02:25;1.60;;;1.13;;
3985;SDS011;2007;48.750;9.278;2023-01-08T12:05:20;1.80;;;1.00;;
3985;SDS011;2007;48.750;9.278;2023-01-08T12:07:55;1.93;;;1.40;;
3985;SDS011;2007;48.750;9.278;2023-01-08T12:10:29;2.10;;;1.20;;
3985;SDS011;2007;48.750;9.278;2023-01-08T12:13:07;2.13;;;1.43;;
3985;SDS011;2007;48.750;9.278;2023-01-08T12:15:49;1.63;;;1.13;;
3985;SDS011;2007;48.750;9.278;2023-01-08T12:18:28;2.43;;;1.43;;
3985;SDS011;2007;48.750;9.278;2023-01-08T12:21:08;1.80;;;1.07;;
3985;SDS011;2007;48.750;9.278;2023-01-08T12:23:46;1.77;;;1.30;;
3985;SDS011;2007;48.750;9.278;2023-01-08T12:26:29;1.50;;;1.00;;
3985;SDS011;2007;48.750;9.278;2023-01-08T12:29:14;1.77;;;1.40;;
3985;SDS011;2007;48.750;9.278;2023-01-08T12:31:58;2.00;;;1.20;;
3985;SDS011;2007;48.750;9.278;2023-01-08T12:34:37;1.90;;;1.10;;
3985;SDS011;2007;48.750;9.278;2023-01-08T12:37:17;1.70;;;1.00;;
3985;SDS011;2007;48.750;9.278;2023-01-08T12:39:52;2.00;;;1.13;;
3985;SDS011;2007;48.750;9.278;2023-01-08T12:42:28;1.40;;;0.93;;
3985;SDS011;2007;48.750;9.278;2023-01-08T12:44:57;1.80;;;1.50;;
3985;SDS011;2007;48.750;9.278;2023-01-08T12:47:29;1.80;;;1.20;;
3985;SDS011;2007;48.750;9.278;2023-01-08T12:50:08;1.70;;;1.00;;
3985;SDS011;2007;48.750;9.278;2023-01-08T12:52:48;1.63;;;1.17;;
3985;SDS011;2007;48.750;9.278;2023-01-08T12:55:26;1.80;;;1.37;;
3985;SDS011;2007;48.750;9.278;2023-01-08T12:58:03;1.80;;;1.20;;
3985;SDS011;2007;48.750;9.278;2023-01-08T13:00:41;1.70;;;1.10;;
3985;SDS011;2007;48.750;9.278;2023-01-08T13:03:18;1.93;;;1.30;;
3985;SDS011;2007;48.750;9.278;2023-01-08T13:05:51;1.70;;;1.30;;
3985;SDS011;2007;48.750;9.278;2023-01-08T13:08:27;2.10;;;1.20;;
3985;SDS011;2007;48.750;9.278;2023-01-08T13:11:01;1.80;;;0.90;;
3985;SDS011;2007;48.750;9.278;2023-01-08T13:13:30;1.90;;;1.10;;
3985;SDS011;2007;48.750;9.278;2023-01-08T13:16:06;1.70;;;1.20;;
3985;SDS011;2007;48.750;9.278;2023-01-08T13:18:49;1.83;;;1.10;;
3985;SDS011;2007;48.750;9.278;2023-01-08T13:21:25;1.70;;;1.10;;
3985;SDS011;2007;48.750;9.278;2023-01-08T13:23:59;1.70;;;1.13;;
3985;SDS011;2007;48.750;9.278;2023-01-08T13:26:30;1.70;;;1.07;;
3985;SDS011;2007;48.750;9.278;2023-01-08T13:29:07;1.90;;;1.20;;
3985;SDS011;2007;48.750;9.278;2023-01-08T13:31:50;1.83;;;1.07;;
3985;SDS011;2007;48.750;9.278;2023-01-08T13:34:22;1.60;;;0.93;;
3985;SDS011;2007;48.750;9.278;2023-01-08T13:37:03;1.60;;;1.00;;
3985;SDS011;2007;48.750;9.278;2023-01-08T13:39:41;1.57;;;1.00;;
3985;SDS011;2007;48.750;9.278;2023-01-08T13:42:23;2.10;;;1.17;;
3985;SDS011;2007;48.750;9.278;2023-01-08T13:44:57;1.70;;;1.00;;
3985;SDS011;2007;48.750;9.278;2023-01-08T13:47:28;2.07;;;1.30;;
3985;SDS011;2007;48.750;9.278;2023-01-08T13:49:58;2.27;;;1.03;;
3985;SDS011;2007;48.750;9.278;2023-01-08T13:52:33;1.60;;;0.80;;
3985;SDS011;2007;48.750;9.278;2023-01-08T13:55:13;2.00;;;1.00;;
3985;SDS011;2007;48.750;9.278;2023-01-08T13:57:44;1.60;;;1.03;;
3985;SDS011;2007;48.750;9.278;2023-01-08T14:00:17;1.60;;;0.97;;
3985;SDS011;2007;48.750;9.278;2023-01-08T14:02:49;2.03;;;1.40;;
3985;SDS011;2007;48.750;9.278;2023-01-08T14:05:21;1.60;;;1.23;;
3985;SDS011;2007;48.750;9.278;2023-01-08T14:07:51;1.80;;;1.10;;
3985;SDS011;2007;48.750;9.278;2023-01-08T14:10:20;1.60;;;0.97;;
3985;SDS011;2007;48.750;9.278;2023-01-08T14:12:49;1.90;;;1.13;;
3985;SDS011;2007;48.750;9.278;2023-01-08T14:15:19;1.70;;;1.00;;
3985;SDS011;2007;48.750;9.278;2023-01-08T14:17:52;1.53;;;0.90;;
3985;SDS011;2007;48.750;9.278;2023-01-08T14:20:29;1.60;;;0.97;;
3985;SDS011;2007;48.750;9.278;2023-01-08T14:22:59;1.90;;;1.10;;
3985;SDS011;2007;48.750;9.278;2023-01-08T14:25:28;1.60;;;1.13;;
3985;SDS011;2007;48.750;9.278;2023-01-08T14:27:58;1.63;;;0.97;;
3985;SDS011;2007;48.750;9.278;2023-01-08T14:30:28;1.73;;;1.33;;
3985;SDS011;2007;48.750;9.278;2023-01-08T14:32:56;1.87;;;1.20;;
3985;SDS011;2007;48.750;9.278;2023-01-08T14:35:27;1.87;;;1.37;;
3985;SDS011;2007;48.750;9.278;2023-01-08T14:37:58;1.50;;;0.90;;
3985;SDS011;2007;48.750;9.278;2023-01-08T14:40:29;1.60;;;1.00;;
3985;SDS011;2007;48.750;9.278;2023-01-08T14:43:02;1.80;;;1.00;;
3985;SDS011;2007;48.750;9.278;2023-01-08T14:45:35;2.00;;;1.07;;
3985;SDS011;2007;48.750;9.278;2023-01-08T14:48:08;1.60;;;0.90;;
3985;SDS011;2007;48.750;9.278;2023-01-08T14:50:39;1.50;;;0.97;;
3985;SDS011;2007;48.750;9.278;2023-01-08T14:53:13;1.77;;;1.13;;
3985;SDS011;2007;48.750;9.278;2023-01-08T14:55:47;1.80;;;1.00;;
3985;SDS011;2007;48.750;9.278;2023-01-08T14:58:19;2.10;;;1.00;;
3985;SDS011;2007;48.750;9.278;2023-01-08T15:00:51;1.77;;;1.00;;
3985;SDS011;2007;48.750;9.278;2023-01-08T15:03:31;1.90;;;1.10;;
3985;SDS011;2007;48.750;9.278;2023-01-08T15:06:01;1.70;;;1.03;;
3985;SDS011;2007;48.750;9.278;2023-01-08T15:08:33;1.70;;;1.07;;
3985;SDS011;2007;48.750;9.278;2023-01-08T15:11:03;1.70;;;1.03;;
3985;SDS011;2007;48.750;9.278;2023-01-08T15:13:34;1.50;;;1.00;;
3985;SDS011;2007;48.750;9.278;2023-01-08T15:16:05;1.60;;;0.90;;
3985;SDS011;2007;48.750;9.278;2023-01-08T15:18:41;1.63;;;0.90;;
3985;SDS011;2007;48.750;9.278;2023-01-08T15:21:15;1.40;;;0.80;;
3985;SDS011;2007;48.750;9.278;2023-01-08T15:23:45;1.50;;;0.83;;
3985;SDS011;2007;48.750;9.278;2023-01-08T15:26:15;1.70;;;1.00;;
3985;SDS011;2007;48.750;9.278;2023-01-08T15:28:45;1.53;;;0.80;;
3985;SDS011;2007;48.750;9.278;2023-01-08T15:31:22;1.60;;;1.10;;
3985;SDS011;2007;48.750;9.278;2023-01-08T15:33:54;2.00;;;1.20;;
3985;SDS011;2007;48.750;9.278;2023-01-08T15:36:23;1.70;;;1.10;;
3985;SDS011;2007;48.750;9.278;2023-01-08T15:38:51;1.60;;;0.83;;